sensor_id;sensor_type;location;lat;lon;timestamp;pressure;altitude;pressure_sealevel;temperature;humidity
34065;BME280;20339;49.754;20.158;2022-08-19T00:02:09;96255.58;;;20.77;75.84
34065;BME280;20339;49.754;20.158;2022-08-19T00:04:37;96254.06;;;20.79;75.78
34065;BME280;20339;49.754;20.158;2022-08-19T00:07:06;96256.70;;;20.80;75.80
34065;BME280;20339;49.754;20.158;2022-08-19T00:09:35;96257.48;;;20.80;75.72
34065;BME280;20339;49.754;20.158;2022-08-19T00:12:04;96259.10;;;20.76;75.71
34065;BME280;20339;49.754;20.158;2022-08-19T00:14:33;96258.12;;;20.73;75.93
34065;BME280;20339;49.754;20.158;2022-08-19T00:17:02;96254.91;;;20.70;76.12
34065;BME280;20339;49.754;20.158;2022-08-19T00:19:31;96258.48;;;20.72;76.24
34065;BME280;20339;49.754;20.158;2022-08-19T00:22:00;96258.06;;;20.70;76.25
34065;BME280;20339;49.754;20.158;2022-08-19T00:24:30;96259.45;;;20.71;76.12
34065;BME280;20339;49.754;20.158;2022-08-19T00:26:59;96256.40;;;20.71;76.30
34065;BME280;20339;49.754;20.158;2022-08-19T00:29:29;96253.22;;;20.70;76.09
34065;BME280;20339;49.754;20.158;2022-08-19T00:31:58;96251.92;;;20.68;76.13
34065;BME280;20339;49.754;20.158;2022-08-19T00:34:27;96253.08;;;20.65;76.11
34065;BME280;20339;49.754;20.158;2022-08-19T00:36:56;96253.36;;;20.64;75.99
34065;BME280;20339;49.754;20.158;2022-08-19T00:39:25;96251.04;;;20.63;76.14
34065;BME280;20339;49.754;20.158;2022-08-19T00:41:53;96252.02;;;20.55;75.94
34065;BME280;20339;49.754;20.158;2022-08-19T00:44:25;96249.33;;;20.49;76.06
34065;BME280;20339;49.754;20.158;2022-08-19T00:46:56;96252.34;;;20.45;76.10
34065;BME280;20339;49.754;20.158;2022-08-19T00:49:29;96248.77;;;20.44;76.18
34065;BME280;20339;49.754;20.158;2022-08-19T00:52:03;96252.39;;;20.39;76.07
34065;BME280;20339;49.754;20.158;2022-08-19T00:54:33;96251.48;;;20.36;76.37
34065;BME280;20339;49.754;20.158;2022-08-19T00:57:05;96246.25;;;20.36;76.56
34065;BME280;20339;49.754;20.158;2022-08-19T00:59:36;96242.23;;;20.35;76.49
34065;BME280;20339;49.754;20.158;2022-08-19T01:02:07;96242.59;;;20.34;76.45
34065;BME280;20339;49.754;20.158;2022-08-19T01:04:35;96242.12;;;20.34;76.43
34065;BME280;20339;49.754;20.158;2022-08-19T01:07:04;96239.67;;;20.34;76.52
34065;BME280;20339;49.754;20.158;2022-08-19T01:09:33;96236.95;;;20.30;76.40
34065;BME280;20339;49.754;20.158;2022-08-19T01:12:02;96241.84;;;20.26;76.43
34065;BME280;20339;49.754;20.158;2022-08-19T01:14:31;96242.30;;;20.22;76.42
34065;BME280;20339;49.754;20.158;2022-08-19T01:17:00;96244.93;;;20.19;76.64
34065;BME280;20339;49.754;20.158;2022-08-19T01:19:33;96238.65;;;20.27;76.87
34065;BME280;20339;49.754;20.158;2022-08-19T01:22:08;96237.30;;;20.41;76.69
34065;BME280;20339;49.754;20.158;2022-08-19T01:24:37;96236.66;;;20.56;76.67
34065;BME280;20339;49.754;20.158;2022-08-19T01:27:06;96235.06;;;20.67;76.13
34065;BME280;20339;49.754;20.158;2022-08-19T01:29:38;96229.05;;;20.75;75.90
34065;BME280;20339;49.754;20.158;2022-08-19T01:32:08;96229.06;;;20.83;75.53
34065;BME280;20339;49.754;20.158;2022-08-19T01:34:37;96220.80;;;20.93;75.36
34065;BME280;20339;49.754;20.158;2022-08-19T01:37:08;96213.95;;;20.94;74.96
34065;BME280;20339;49.754;20.158;2022-08-19T01:39:40;96211.95;;;20.94;74.74
34065;BME280;20339;49.754;20.158;2022-08-19T01:42:08;96211.33;;;20.88;74.70
34065;BME280;20339;49.754;20.158;2022-08-19T01:44:39;96214.52;;;20.83;74.60
34065;BME280;20339;49.754;20.158;2022-08-19T01:47:09;96215.26;;;20.82;74.78
34065;BME280;20339;49.754;20.158;2022-08-19T01:49:37;96219.95;;;20.82;74.73
34065;BME280;20339;49.754;20.158;2022-08-19T01:52:06;96224.92;;;20.81;74.80
34065;BME280;20339;49.754;20.158;2022-08-19T01:54:35;96227.35;;;20.83;74.74
34065;BME280;20339;49.754;20.158;2022-08-19T01:57:07;96222.99;;;20.80;74.77
34065;BME280;20339;49.754;20.158;2022-08-19T01:59:37;96226.96;;;20.78;74.73
34065;BME280;20339;49.754;20.158;2022-08-19T02:02:06;96224.95;;;20.77;74.68
34065;BME280;20339;49.754;20.158;2022-08-19T02:04:35;96225.23;;;20.80;74.68
34065;BME280;20339;49.754;20.158;2022-08-19T02:07:05;96220.83;;;20.80;74.41
34065;BME280;20339;49.754;20.158;2022-08-19T02:09:34;96219.52;;;20.79;74.50
34065;BME280;20339;49.754;20.158;2022-08-19T02:12:03;96215.52;;;20.80;74.29
34065;BME280;20339;49.754;20.158;2022-08-19T02:14:34;96216.09;;;20.82;74.20
34065;BME280;20339;49.754;20.158;2022-08-19T02:17:03;96216.98;;;20.83;74.28
34065;BME280;20339;49.754;20.158;2022-08-19T02:19:31;96216.52;;;20.86;74.21
34065;BME280;20339;49.754;20.158;2022-08-19T02:22:00;96213.73;;;20.85;74.28
34065;BME280;20339;49.754;20.158;2022-08-19T02:24:31;96213.95;;;20.78;74.47
34065;BME280;20339;49.754;20.158;2022-08-19T02:26:59;96213.33;;;20.66;74.71
34065;BME280;20339;49.754;20.158;2022-08-19T02:29:30;96216.48;;;20.48;75.16
34065;BME280;20339;49.754;20.158;2022-08-19T02:31:59;96210.58;;;20.33;75.87
34065;BME280;20339;49.754;20.158;2022-08-19T02:34:27;96205.77;;;20.29;76.13
34065;BME280;20339;49.754;20.158;2022-08-19T02:36:56;96204.09;;;20.29;76.21
34065;BME280;20339;49.754;20.158;2022-08-19T02:39:25;96206.98;;;20.34;76.34
34065;BME280;20339;49.754;20.158;2022-08-19T02:41:53;96209.05;;;20.38;76.44
34065;BME280;20339;49.754;20.158;2022-08-19T02:44:22;96204.97;;;20.38;76.49
34065;BME280;20339;49.754;20.158;2022-08-19T02:46:50;96207.95;;;20.36;76.35
34065;BME280;20339;49.754;20.158;2022-08-19T02:49:19;96208.41;;;20.33;76.47
34065;BME280;20339;49.754;20.158;2022-08-19T02:51:48;96208.36;;;20.30;76.48
34065;BME280;20339;49.754;20.158;2022-08-19T02:54:17;96211.89;;;20.27;76.55
34065;BME280;20339;49.754;20.158;2022-08-19T02:56:45;96219.30;;;20.25;76.61
34065;BME280;20339;49.754;20.158;2022-08-19T02:59:14;96218.02;;;20.20;76.57
34065;BME280;20339;49.754;20.158;2022-08-19T03:01:43;96219.77;;;20.19;76.71
34065;BME280;20339;49.754;20.158;2022-08-19T03:04:12;96222.77;;;20.22;76.65
34065;BME280;20339;49.754;20.158;2022-08-19T03:06:45;96225.71;;;20.23;76.52
34065;BME280;20339;49.754;20.158;2022-08-19T03:09:15;96226.89;;;20.24;76.54
34065;BME280;20339;49.754;20.158;2022-08-19T03:11:44;96228.40;;;20.23;76.53
34065;BME280;20339;49.754;20.158;2022-08-19T03:14:13;96235.85;;;20.26;76.48
34065;BME280;20339;49.754;20.158;2022-08-19T03:16:43;96241.63;;;20.26;76.44
34065;BME280;20339;49.754;20.158;2022-08-19T03:19:13;96248.61;;;20.28;76.59
34065;BME280;20339;49.754;20.158;2022-08-19T03:21:43;96250.40;;;20.29;76.64
34065;BME280;20339;49.754;20.158;2022-08-19T03:24:13;96252.70;;;20.28;76.69
34065;BME280;20339;49.754;20.158;2022-08-19T03:26:44;96249.33;;;20.29;76.52
34065;BME280;20339;49.754;20.158;2022-08-19T03:29:14;96256.20;;;20.30;76.57
34065;BME280;20339;49.754;20.158;2022-08-19T03:31:44;96247.45;;;20.35;76.71
34065;BME280;20339;49.754;20.158;2022-08-19T03:34:14;96248.38;;;20.41;76.66
34065;BME280;20339;49.754;20.158;2022-08-19T03:36:45;96240.27;;;20.46;76.61
34065;BME280;20339;49.754;20.158;2022-08-19T03:39:14;96231.71;;;20.49;76.33
34065;BME280;20339;49.754;20.158;2022-08-19T03:41:45;96227.38;;;20.50;76.24
34065;BME280;20339;49.754;20.158;2022-08-19T03:44:14;96226.33;;;20.53;75.92
34065;BME280;20339;49.754;20.158;2022-08-19T03:46:46;96231.58;;;20.59;75.68
34065;BME280;20339;49.754;20.158;2022-08-19T03:49:16;96237.33;;;20.66;75.32
34065;BME280;20339;49.754;20.158;2022-08-19T03:51:46;96241.66;;;20.74;75.06
34065;BME280;20339;49.754;20.158;2022-08-19T03:54:18;96244.48;;;20.81;74.84
34065;BME280;20339;49.754;20.158;2022-08-19T03:56:48;96248.66;;;20.84;74.55
34065;BME280;20339;49.754;20.158;2022-08-19T03:59:17;96250.49;;;20.88;74.45
34065;BME280;20339;49.754;20.158;2022-08-19T04:01:46;96249.86;;;20.95;74.07
34065;BME280;20339;49.754;20.158;2022-08-19T04:04:15;96248.64;;;21.02;73.94
34065;BME280;20339;49.754;20.158;2022-08-19T04:06:43;96249.20;;;21.07;73.55
34065;BME280;20339;49.754;20.158;2022-08-19T04:09:15;96242.05;;;21.12;73.35
34065;BME280;20339;49.754;20.158;2022-08-19T04:11:46;96236.90;;;21.16;73.01
34065;BME280;20339;49.754;20.158;2022-08-19T04:14:17;96238.16;;;21.25;72.70
34065;BME280;20339;49.754;20.158;2022-08-19T04:16:47;96236.98;;;21.30;72.45
34065;BME280;20339;49.754;20.158;2022-08-19T04:19:17;96239.42;;;21.34;72.17
34065;BME280;20339;49.754;20.158;2022-08-19T04:21:48;96239.86;;;21.37;72.02
34065;BME280;20339;49.754;20.158;2022-08-19T04:24:18;96240.41;;;21.38;72.18
34065;BME280;20339;49.754;20.158;2022-08-19T04:26:47;96251.64;;;21.44;71.85
34065;BME280;20339;49.754;20.158;2022-08-19T04:29:18;96250.87;;;21.52;71.56
34065;BME280;20339;49.754;20.158;2022-08-19T04:31:50;96249.42;;;21.61;71.50
34065;BME280;20339;49.754;20.158;2022-08-19T04:34:20;96246.47;;;21.78;71.41
34065;BME280;20339;49.754;20.158;2022-08-19T04:36:51;96247.70;;;21.99;70.89
34065;BME280;20339;49.754;20.158;2022-08-19T04:39:22;96248.14;;;22.41;70.49
34065;BME280;20339;49.754;20.158;2022-08-19T04:42:11;96245.50;;;22.88;69.39
34065;BME280;20339;49.754;20.158;2022-08-19T04:44:58;96248.67;;;23.46;68.35
34065;BME280;20339;49.754;20.158;2022-08-19T04:47:27;96238.20;;;24.05;67.27
34065;BME280;20339;49.754;20.158;2022-08-19T04:49:56;96235.07;;;24.60;65.96
34065;BME280;20339;49.754;20.158;2022-08-19T04:52:24;96229.09;;;24.84;64.44
34065;BME280;20339;49.754;20.158;2022-08-19T04:54:53;96234.88;;;25.29;64.20
34065;BME280;20339;49.754;20.158;2022-08-19T04:57:23;96233.49;;;26.03;63.02
34065;BME280;20339;49.754;20.158;2022-08-19T04:59:55;96238.91;;;26.68;61.58
34065;BME280;20339;49.754;20.158;2022-08-19T05:02:24;96243.50;;;27.22;60.76
34065;BME280;20339;49.754;20.158;2022-08-19T05:04:57;96247.41;;;27.52;58.08
34065;BME280;20339;49.754;20.158;2022-08-19T05:07:27;96246.89;;;27.68;57.26
34065;BME280;20339;49.754;20.158;2022-08-19T05:09:56;96244.35;;;28.20;56.78
34065;BME280;20339;49.754;20.158;2022-08-19T05:12:24;96250.21;;;28.73;55.21
34065;BME280;20339;49.754;20.158;2022-08-19T05:14:53;96250.59;;;28.98;54.31
34065;BME280;20339;49.754;20.158;2022-08-19T05:17:22;96253.04;;;29.17;52.87
34065;BME280;20339;49.754;20.158;2022-08-19T05:19:50;96258.52;;;29.26;51.58
34065;BME280;20339;49.754;20.158;2022-08-19T05:22:37;96257.66;;;29.21;51.76
34065;BME280;20339;49.754;20.158;2022-08-19T05:25:09;96257.86;;;29.25;52.01
34065;BME280;20339;49.754;20.158;2022-08-19T05:27:40;96256.89;;;29.60;51.62
34065;BME280;20339;49.754;20.158;2022-08-19T05:30:11;96256.65;;;30.09;51.63
34065;BME280;20339;49.754;20.158;2022-08-19T05:32:40;96261.39;;;30.65;50.90
34065;BME280;20339;49.754;20.158;2022-08-19T05:35:11;96265.63;;;31.27;50.05
34065;BME280;20339;49.754;20.158;2022-08-19T05:37:40;96268.99;;;31.74;48.65
34065;BME280;20339;49.754;20.158;2022-08-19T05:40:10;96267.84;;;31.98;47.65
34065;BME280;20339;49.754;20.158;2022-08-19T05:42:38;96271.59;;;32.19;47.07
34065;BME280;20339;49.754;20.158;2022-08-19T05:45:09;96278.48;;;32.65;46.79
34065;BME280;20339;49.754;20.158;2022-08-19T05:47:37;96282.05;;;33.09;45.36
34065;BME280;20339;49.754;20.158;2022-08-19T05:50:07;96285.01;;;33.24;44.11
34065;BME280;20339;49.754;20.158;2022-08-19T05:52:37;96284.46;;;33.27;42.89
34065;BME280;20339;49.754;20.158;2022-08-19T05:55:08;96283.06;;;33.13;42.75
34065;BME280;20339;49.754;20.158;2022-08-19T05:57:36;96276.52;;;33.13;41.48
34065;BME280;20339;49.754;20.158;2022-08-19T06:00:08;96280.48;;;33.06;41.62
34065;BME280;20339;49.754;20.158;2022-08-19T06:02:38;96281.81;;;33.09;41.40
34065;BME280;20339;49.754;20.158;2022-08-19T06:05:08;96275.28;;;32.67;39.98
34065;BME280;20339;49.754;20.158;2022-08-19T06:07:37;96278.05;;;32.56;41.73
34065;BME280;20339;49.754;20.158;2022-08-19T06:10:09;96282.83;;;33.26;41.91
34065;BME280;20339;49.754;20.158;2022-08-19T06:12:39;96285.68;;;34.15;40.71
34065;BME280;20339;49.754;20.158;2022-08-19T06:15:10;96281.23;;;34.78;39.34
34065;BME280;20339;49.754;20.158;2022-08-19T06:17:41;96280.98;;;35.06;38.83
34065;BME280;20339;49.754;20.158;2022-08-19T06:20:13;96280.88;;;35.35;38.61
34065;BME280;20339;49.754;20.158;2022-08-19T06:22:44;96286.45;;;35.68;38.21
34065;BME280;20339;49.754;20.158;2022-08-19T06:25:15;96294.26;;;36.17;37.67
34065;BME280;20339;49.754;20.158;2022-08-19T06:27:44;96293.54;;;36.56;37.27
34065;BME280;20339;49.754;20.158;2022-08-19T06:30:14;96291.90;;;36.86;35.68
34065;BME280;20339;49.754;20.158;2022-08-19T06:32:41;96294.30;;;36.45;36.33
34065;BME280;20339;49.754;20.158;2022-08-19T06:35:10;96294.23;;;36.97;35.94
34065;BME280;20339;49.754;20.158;2022-08-19T06:37:38;96292.02;;;37.28;35.88
34065;BME280;20339;49.754;20.158;2022-08-19T06:40:09;96293.51;;;37.60;35.17
34065;BME280;20339;49.754;20.158;2022-08-19T06:42:39;96290.36;;;37.84;35.17
34065;BME280;20339;49.754;20.158;2022-08-19T06:45:09;96283.66;;;38.51;35.26
34065;BME280;20339;49.754;20.158;2022-08-19T06:47:37;96283.89;;;39.26;34.44
34065;BME280;20339;49.754;20.158;2022-08-19T06:50:08;96289.83;;;39.30;33.86
34065;BME280;20339;49.754;20.158;2022-08-19T06:52:37;96287.67;;;39.47;33.37
34065;BME280;20339;49.754;20.158;2022-08-19T06:55:07;96285.41;;;39.92;33.61
34065;BME280;20339;49.754;20.158;2022-08-19T06:57:36;96285.69;;;40.28;33.07
34065;BME280;20339;49.754;20.158;2022-08-19T07:00:07;96293.86;;;40.68;32.74
34065;BME280;20339;49.754;20.158;2022-08-19T07:02:38;96302.36;;;40.73;31.43
34065;BME280;20339;49.754;20.158;2022-08-19T07:05:08;96306.15;;;40.43;31.43
34065;BME280;20339;49.754;20.158;2022-08-19T07:07:37;96309.95;;;40.50;31.61
34065;BME280;20339;49.754;20.158;2022-08-19T07:10:08;96314.09;;;40.46;31.44
34065;BME280;20339;49.754;20.158;2022-08-19T07:12:37;96314.83;;;40.32;31.15
34065;BME280;20339;49.754;20.158;2022-08-19T07:15:05;96316.61;;;40.30;31.12
34065;BME280;20339;49.754;20.158;2022-08-19T07:17:36;96321.45;;;40.57;31.14
34065;BME280;20339;49.754;20.158;2022-08-19T07:20:09;96326.35;;;40.63;30.73
34065;BME280;20339;49.754;20.158;2022-08-19T07:22:38;96323.20;;;40.61;30.33
34065;BME280;20339;49.754;20.158;2022-08-19T07:25:07;96319.16;;;40.54;30.23
34065;BME280;20339;49.754;20.158;2022-08-19T07:27:35;96322.80;;;40.60;30.49
34065;BME280;20339;49.754;20.158;2022-08-19T07:30:06;96326.42;;;40.73;30.22
34065;BME280;20339;49.754;20.158;2022-08-19T07:32:35;96326.72;;;40.93;30.28
34065;BME280;20339;49.754;20.158;2022-08-19T07:35:04;96321.69;;;40.85;30.12
34065;BME280;20339;49.754;20.158;2022-08-19T07:37:34;96327.22;;;40.98;29.39
34065;BME280;20339;49.754;20.158;2022-08-19T07:40:05;96327.31;;;40.77;29.14
34065;BME280;20339;49.754;20.158;2022-08-19T07:42:34;96326.48;;;40.41;28.92
34065;BME280;20339;49.754;20.158;2022-08-19T07:45:02;96323.00;;;40.12;29.66
34065;BME280;20339;49.754;20.158;2022-08-19T07:47:31;96325.29;;;40.40;29.58
34065;BME280;20339;49.754;20.158;2022-08-19T07:49:58;96321.80;;;40.66;29.88
34065;BME280;20339;49.754;20.158;2022-08-19T07:52:28;96323.73;;;40.98;29.60
34065;BME280;20339;49.754;20.158;2022-08-19T07:54:57;96329.13;;;41.49;28.97
34065;BME280;20339;49.754;20.158;2022-08-19T07:57:27;96328.24;;;41.15;28.96
34065;BME280;20339;49.754;20.158;2022-08-19T07:59:56;96330.37;;;40.56;29.04
34065;BME280;20339;49.754;20.158;2022-08-19T08:02:23;96335.79;;;40.45;30.16
34065;BME280;20339;49.754;20.158;2022-08-19T08:04:52;96335.49;;;40.92;29.06
34065;BME280;20339;49.754;20.158;2022-08-19T08:07:39;96337.61;;;40.26;29.64
34065;BME280;20339;49.754;20.158;2022-08-19T08:10:25;96339.35;;;40.24;29.95
34065;BME280;20339;49.754;20.158;2022-08-19T08:12:53;96340.81;;;40.73;29.76
34065;BME280;20339;49.754;20.158;2022-08-19T08:15:23;96342.64;;;41.55;30.16
34065;BME280;20339;49.754;20.158;2022-08-19T08:17:51;96342.39;;;42.26;28.94
34065;BME280;20339;49.754;20.158;2022-08-19T08:20:21;96345.16;;;41.93;28.46
34065;BME280;20339;49.754;20.158;2022-08-19T08:22:50;96346.73;;;41.87;29.05
34065;BME280;20339;49.754;20.158;2022-08-19T08:25:36;96349.88;;;42.00;27.56
34065;BME280;20339;49.754;20.158;2022-08-19T08:28:06;96354.01;;;41.98;28.69
34065;BME280;20339;49.754;20.158;2022-08-19T08:30:36;96355.21;;;42.61;28.12
34065;BME280;20339;49.754;20.158;2022-08-19T08:33:07;96355.41;;;43.28;27.74
34065;BME280;20339;49.754;20.158;2022-08-19T08:35:36;96353.71;;;44.10;27.20
34065;BME280;20339;49.754;20.158;2022-08-19T08:38:05;96353.40;;;43.84;26.40
34065;BME280;20339;49.754;20.158;2022-08-19T08:40:39;96351.96;;;42.14;27.63
34065;BME280;20339;49.754;20.158;2022-08-19T08:43:18;96356.61;;;41.72;28.64
34065;BME280;20339;49.754;20.158;2022-08-19T08:45:53;96354.55;;;41.55;28.47
34065;BME280;20339;49.754;20.158;2022-08-19T08:48:27;96349.36;;;40.80;28.83
34065;BME280;20339;49.754;20.158;2022-08-19T08:51:02;96346.88;;;40.33;29.48
34065;BME280;20339;49.754;20.158;2022-08-19T08:53:32;96347.20;;;40.07;29.66
34065;BME280;20339;49.754;20.158;2022-08-19T08:56:04;96347.15;;;40.32;30.31
34065;BME280;20339;49.754;20.158;2022-08-19T08:58:51;96347.40;;;41.26;30.13
34065;BME280;20339;49.754;20.158;2022-08-19T09:01:26;96344.81;;;41.77;28.82
34065;BME280;20339;49.754;20.158;2022-08-19T09:03:55;96346.54;;;41.82;29.53
34065;BME280;20339;49.754;20.158;2022-08-19T09:06:29;96346.59;;;41.78;28.59
34065;BME280;20339;49.754;20.158;2022-08-19T09:09:04;96343.14;;;41.18;28.15
34065;BME280;20339;49.754;20.158;2022-08-19T09:11:46;96342.17;;;40.71;28.92
34065;BME280;20339;49.754;20.158;2022-08-19T09:14:27;96343.63;;;40.25;28.97
34065;BME280;20339;49.754;20.158;2022-08-19T09:16:57;96343.98;;;39.62;29.48
34065;BME280;20339;49.754;20.158;2022-08-19T09:19:26;96342.20;;;38.90;29.73
34065;BME280;20339;49.754;20.158;2022-08-19T09:21:55;96340.55;;;38.26;30.84
34065;BME280;20339;49.754;20.158;2022-08-19T09:24:24;96341.53;;;37.88;30.99
34065;BME280;20339;49.754;20.158;2022-08-19T09:26:53;96334.31;;;37.21;31.75
34065;BME280;20339;49.754;20.158;2022-08-19T09:29:24;96335.07;;;36.74;32.36
34065;BME280;20339;49.754;20.158;2022-08-19T09:31:53;96336.02;;;36.25;32.87
34065;BME280;20339;49.754;20.158;2022-08-19T09:34:22;96331.23;;;36.01;34.12
34065;BME280;20339;49.754;20.158;2022-08-19T09:36:51;96331.38;;;35.96;33.80
34065;BME280;20339;49.754;20.158;2022-08-19T09:39:22;96327.04;;;35.83;34.90
34065;BME280;20339;49.754;20.158;2022-08-19T09:41:52;96326.34;;;36.02;35.03
34065;BME280;20339;49.754;20.158;2022-08-19T09:44:21;96327.33;;;35.77;35.13
34065;BME280;20339;49.754;20.158;2022-08-19T09:46:51;96328.11;;;35.47;35.48
34065;BME280;20339;49.754;20.158;2022-08-19T09:49:20;96326.56;;;34.92;36.19
34065;BME280;20339;49.754;20.158;2022-08-19T09:51:52;96328.08;;;34.57;36.04
34065;BME280;20339;49.754;20.158;2022-08-19T09:54:21;96326.95;;;34.25;36.37
34065;BME280;20339;49.754;20.158;2022-08-19T09:56:51;96318.40;;;34.02;37.16
34065;BME280;20339;49.754;20.158;2022-08-19T09:59:21;96314.45;;;33.86;38.20
34065;BME280;20339;49.754;20.158;2022-08-19T10:01:50;96312.50;;;34.14;38.91
34065;BME280;20339;49.754;20.158;2022-08-19T10:04:20;96309.77;;;34.37;39.29
34065;BME280;20339;49.754;20.158;2022-08-19T10:06:50;96313.07;;;34.62;39.31
34065;BME280;20339;49.754;20.158;2022-08-19T10:09:19;96315.58;;;34.62;39.53
34065;BME280;20339;49.754;20.158;2022-08-19T10:11:48;96316.17;;;34.33;39.90
34065;BME280;20339;49.754;20.158;2022-08-19T10:14:18;96315.16;;;33.91;39.93
34065;BME280;20339;49.754;20.158;2022-08-19T10:16:50;96311.15;;;33.45;40.62
34065;BME280;20339;49.754;20.158;2022-08-19T10:19:19;96310.52;;;33.43;42.03
34065;BME280;20339;49.754;20.158;2022-08-19T10:21:49;96309.31;;;33.82;41.67
34065;BME280;20339;49.754;20.158;2022-08-19T10:24:18;96312.40;;;34.12;41.43
34065;BME280;20339;49.754;20.158;2022-08-19T10:26:48;96311.61;;;33.95;40.72
34065;BME280;20339;49.754;20.158;2022-08-19T10:29:17;96307.19;;;33.98;41.63
34065;BME280;20339;49.754;20.158;2022-08-19T10:31:46;96303.19;;;34.13;41.65
34065;BME280;20339;49.754;20.158;2022-08-19T10:34:15;96297.73;;;34.14;40.63
34065;BME280;20339;49.754;20.158;2022-08-19T10:36:45;96295.33;;;34.00;41.39
34065;BME280;20339;49.754;20.158;2022-08-19T10:39:14;96295.63;;;34.11;41.82
34065;BME280;20339;49.754;20.158;2022-08-19T10:41:42;96300.41;;;34.16;41.69
34065;BME280;20339;49.754;20.158;2022-08-19T10:44:12;96294.50;;;34.21;42.25
34065;BME280;20339;49.754;20.158;2022-08-19T10:46:43;96296.99;;;34.25;41.75
34065;BME280;20339;49.754;20.158;2022-08-19T10:49:12;96301.36;;;34.11;42.61
34065;BME280;20339;49.754;20.158;2022-08-19T10:51:41;96301.66;;;34.27;43.10
34065;BME280;20339;49.754;20.158;2022-08-19T10:54:28;96303.88;;;34.22;42.06
34065;BME280;20339;49.754;20.158;2022-08-19T10:57:13;96307.51;;;34.06;42.80
34065;BME280;20339;49.754;20.158;2022-08-19T10:59:42;96307.47;;;33.89;43.55
34065;BME280;20339;49.754;20.158;2022-08-19T11:02:11;96306.69;;;34.02;43.75
34065;BME280;20339;49.754;20.158;2022-08-19T11:04:41;96308.30;;;34.11;43.71
34065;BME280;20339;49.754;20.158;2022-08-19T11:07:10;96309.02;;;34.10;44.29
34065;BME280;20339;49.754;20.158;2022-08-19T11:09:41;96300.67;;;34.00;44.32
34065;BME280;20339;49.754;20.158;2022-08-19T11:12:10;96299.84;;;34.14;44.93
34065;BME280;20339;49.754;20.158;2022-08-19T11:14:40;96292.27;;;34.30;44.44
34065;BME280;20339;49.754;20.158;2022-08-19T11:17:10;96292.79;;;34.26;43.81
34065;BME280;20339;49.754;20.158;2022-08-19T11:19:41;96291.14;;;34.08;43.90
34065;BME280;20339;49.754;20.158;2022-08-19T11:22:11;96288.66;;;33.84;44.35
34065;BME280;20339;49.754;20.158;2022-08-19T11:24:39;96285.41;;;33.55;43.65
34065;BME280;20339;49.754;20.158;2022-08-19T11:27:10;96273.00;;;33.39;45.55
34065;BME280;20339;49.754;20.158;2022-08-19T11:29:39;96275.76;;;33.63;46.02
34065;BME280;20339;49.754;20.158;2022-08-19T11:32:13;96274.10;;;33.79;45.34
34065;BME280;20339;49.754;20.158;2022-08-19T11:34:43;96278.02;;;33.90;46.13
34065;BME280;20339;49.754;20.158;2022-08-19T11:37:12;96273.59;;;34.07;46.04
34065;BME280;20339;49.754;20.158;2022-08-19T11:39:40;96274.86;;;34.14;46.04
34065;BME280;20339;49.754;20.158;2022-08-19T11:42:10;96276.37;;;34.23;45.94
34065;BME280;20339;49.754;20.158;2022-08-19T11:44:57;96270.85;;;34.31;44.75
34065;BME280;20339;49.754;20.158;2022-08-19T11:47:26;96264.33;;;34.27;44.49
34065;BME280;20339;49.754;20.158;2022-08-19T11:49:55;96260.21;;;34.25;43.80
34065;BME280;20339;49.754;20.158;2022-08-19T11:52:23;96258.34;;;34.24;43.57
34065;BME280;20339;49.754;20.158;2022-08-19T11:54:53;96259.63;;;34.28;43.66
34065;BME280;20339;49.754;20.158;2022-08-19T11:57:27;96254.54;;;34.35;44.29
34065;BME280;20339;49.754;20.158;2022-08-19T11:59:57;96260.46;;;34.37;44.32
34065;BME280;20339;49.754;20.158;2022-08-19T12:02:26;96262.02;;;34.35;43.82
34065;BME280;20339;49.754;20.158;2022-08-19T12:04:55;96267.39;;;34.19;43.08
34065;BME280;20339;49.754;20.158;2022-08-19T12:07:24;96267.13;;;34.15;43.72
34065;BME280;20339;49.754;20.158;2022-08-19T12:09:53;96268.20;;;34.23;44.46
34065;BME280;20339;49.754;20.158;2022-08-19T12:12:21;96268.30;;;34.35;44.56
34065;BME280;20339;49.754;20.158;2022-08-19T12:14:52;96263.98;;;34.40;44.71
34065;BME280;20339;49.754;20.158;2022-08-19T12:17:25;96260.19;;;34.36;44.01
34065;BME280;20339;49.754;20.158;2022-08-19T12:19:53;96260.59;;;34.25;44.01
34065;BME280;20339;49.754;20.158;2022-08-19T12:22:22;96256.59;;;34.25;44.38
34065;BME280;20339;49.754;20.158;2022-08-19T12:24:51;96256.84;;;34.19;44.00
34065;BME280;20339;49.754;20.158;2022-08-19T12:27:21;96257.44;;;34.20;44.57
34065;BME280;20339;49.754;20.158;2022-08-19T12:29:50;96259.39;;;34.26;44.06
34065;BME280;20339;49.754;20.158;2022-08-19T12:32:19;96255.73;;;34.30;44.08
34065;BME280;20339;49.754;20.158;2022-08-19T12:34:47;96254.48;;;34.34;44.35
34065;BME280;20339;49.754;20.158;2022-08-19T12:37:16;96252.41;;;34.35;44.49
34065;BME280;20339;49.754;20.158;2022-08-19T12:39:48;96249.41;;;34.36;44.34
34065;BME280;20339;49.754;20.158;2022-08-19T12:42:19;96251.36;;;34.29;42.70
34065;BME280;20339;49.754;20.158;2022-08-19T12:44:50;96249.09;;;34.06;43.06
34065;BME280;20339;49.754;20.158;2022-08-19T12:47:20;96240.06;;;34.03;44.05
34065;BME280;20339;49.754;20.158;2022-08-19T12:49:49;96237.56;;;34.08;43.38
34065;BME280;20339;49.754;20.158;2022-08-19T12:52:17;96230.94;;;34.15;43.48
34065;BME280;20339;49.754;20.158;2022-08-19T12:54:51;96230.34;;;34.17;42.82
34065;BME280;20339;49.754;20.158;2022-08-19T12:57:20;96229.35;;;34.11;42.87
34065;BME280;20339;49.754;20.158;2022-08-19T12:59:52;96228.80;;;34.12;43.34
34065;BME280;20339;49.754;20.158;2022-08-19T13:02:21;96230.06;;;34.13;43.59
34065;BME280;20339;49.754;20.158;2022-08-19T13:04:50;96234.30;;;34.09;42.19
34065;BME280;20339;49.754;20.158;2022-08-19T13:07:19;96236.21;;;34.06;42.19